sensor_id;sensor_type;location;lat;lon;timestamp;P1;durP1;ratioP1;P2;durP2;ratioP2
27925;SDS011;15267;47.838;12.128;2022-10-16T00:00:38;34.95;;;19.98;;
27925;SDS011;15267;47.838;12.128;2022-10-16T00:03:04;45.67;;;24.45;;
27925;SDS011;15267;47.838;12.128;2022-10-16T00:05:31;44.78;;;23.63;;
27925;SDS011;15267;47.838;12.128;2022-10-16T00:07:57;48.58;;;26.55;;
27925;SDS011;15267;47.838;12.128;2022-10-16T00:10:23;52.53;;;27.70;;
27925;SDS011;15267;47.838;12.128;2022-10-16T00:12:49;34.40;;;19.02;;
27925;SDS011;15267;47.838;12.128;2022-10-16T00:15:15;23.45;;;12.35;;
27925;SDS011;15267;47.838;12.128;2022-10-16T00:17:41;17.85;;;10.27;;
27925;SDS011;15267;47.838;12.128;2022-10-16T00:20:07;17.55;;;10.40;;
27925;SDS011;15267;47.838;12.128;2022-10-16T00:22:33;21.45;;;10.75;;
27925;SDS011;15267;47.838;12.128;2022-10-16T00:24:59;17.23;;;9.32;;
27925;SDS011;15267;47.838;12.128;2022-10-16T00:27:25;16.80;;;7.43;;
27925;SDS011;15267;47.838;12.128;2022-10-16T00:29:51;10.77;;;5.82;;
27925;SDS011;15267;47.838;12.128;2022-10-16T00:32:17;8.10;;;4.95;;
27925;SDS011;15267;47.838;12.128;2022-10-16T00:34:43;6.50;;;4.60;;
27925;SDS011;15267;47.838;12.128;2022-10-16T00:37:10;11.43;;;4.95;;
27925;SDS011;15267;47.838;12.128;2022-10-16T00:39:36;9.20;;;4.18;;
27925;SDS011;15267;47.838;12.128;2022-10-16T00:42:02;10.27;;;4.00;;
27925;SDS011;15267;47.838;12.128;2022-10-16T00:44:42;9.82;;;3.60;;
27925;SDS011;15267;47.838;12.128;2022-10-16T00:47:13;12.90;;;4.05;;
27925;SDS011;15267;47.838;12.128;2022-10-16T00:49:41;5.82;;;3.30;;
27925;SDS011;15267;47.838;12.128;2022-10-16T00:52:07;6.60;;;3.20;;
27925;SDS011;15267;47.838;12.128;2022-10-16T00:54:33;7.85;;;3.42;;
27925;SDS011;15267;47.838;12.128;2022-10-16T00:57:00;9.40;;;3.03;;
27925;SDS011;15267;47.838;12.128;2022-10-16T00:59:28;4.47;;;3.10;;
27925;SDS011;15267;47.838;12.128;2022-10-16T01:01:55;5.55;;;2.97;;
27925;SDS011;15267;47.838;12.128;2022-10-16T01:04:21;6.28;;;2.80;;
27925;SDS011;15267;47.838;12.128;2022-10-16T01:14:19;5.28;;;2.60;;
27925;SDS011;15267;47.838;12.128;2022-10-16T01:16:57;5.60;;;2.72;;
27925;SDS011;15267;47.838;12.128;2022-10-16T01:19:26;7.13;;;2.47;;
27925;SDS011;15267;47.838;12.128;2022-10-16T01:21:56;5.60;;;2.75;;
27925;SDS011;15267;47.838;12.128;2022-10-16T01:24:37;7.72;;;2.30;;
27925;SDS011;15267;47.838;12.128;2022-10-16T01:29:53;6.90;;;2.33;;
27925;SDS011;15267;47.838;12.128;2022-10-16T01:35:19;8.98;;;2.78;;
27925;SDS011;15267;47.838;12.128;2022-10-16T01:37:53;7.22;;;2.70;;
27925;SDS011;15267;47.838;12.128;2022-10-16T01:40:20;10.02;;;2.50;;
27925;SDS011;15267;47.838;12.128;2022-10-16T01:42:51;7.90;;;2.50;;
27925;SDS011;15267;47.838;12.128;2022-10-16T01:45:18;7.85;;;2.50;;
27925;SDS011;15267;47.838;12.128;2022-10-16T01:47:44;4.80;;;2.22;;
27925;SDS011;15267;47.838;12.128;2022-10-16T01:50:11;5.88;;;2.45;;
27925;SDS011;15267;47.838;12.128;2022-10-16T01:52:39;8.60;;;2.65;;
27925;SDS011;15267;47.838;12.128;2022-10-16T01:55:06;11.30;;;2.90;;
27925;SDS011;15267;47.838;12.128;2022-10-16T01:57:34;5.18;;;2.63;;
27925;SDS011;15267;47.838;12.128;2022-10-16T02:00:05;7.45;;;2.58;;
27925;SDS011;15267;47.838;12.128;2022-10-16T02:02:32;6.80;;;2.53;;
27925;SDS011;15267;47.838;12.128;2022-10-16T02:05:08;6.50;;;2.30;;
27925;SDS011;15267;47.838;12.128;2022-10-16T02:07:37;7.43;;;2.40;;
27925;SDS011;15267;47.838;12.128;2022-10-16T02:10:03;4.88;;;2.45;;
27925;SDS011;15267;47.838;12.128;2022-10-16T02:12:31;5.25;;;2.60;;
27925;SDS011;15267;47.838;12.128;2022-10-16T02:14:57;7.35;;;2.72;;
27925;SDS011;15267;47.838;12.128;2022-10-16T02:17:23;6.28;;;2.42;;
27925;SDS011;15267;47.838;12.128;2022-10-16T02:19:50;6.00;;;2.58;;
27925;SDS011;15267;47.838;12.128;2022-10-16T02:22:27;8.98;;;2.70;;
27925;SDS011;15267;47.838;12.128;2022-10-16T02:27:22;7.38;;;2.78;;
27925;SDS011;15267;47.838;12.128;2022-10-16T02:29:52;5.45;;;2.75;;
27925;SDS011;15267;47.838;12.128;2022-10-16T02:32:23;4.35;;;2.38;;
27925;SDS011;15267;47.838;12.128;2022-10-16T02:34:50;5.40;;;2.85;;
27925;SDS011;15267;47.838;12.128;2022-10-16T02:37:16;6.55;;;2.35;;
27925;SDS011;15267;47.838;12.128;2022-10-16T02:39:43;6.05;;;2.53;;
27925;SDS011;15267;47.838;12.128;2022-10-16T02:42:10;4.50;;;2.30;;
27925;SDS011;15267;47.838;12.128;2022-10-16T02:44:36;8.43;;;2.60;;
27925;SDS011;15267;47.838;12.128;2022-10-16T02:47:02;9.40;;;2.70;;
27925;SDS011;15267;47.838;12.128;2022-10-16T02:49:28;7.60;;;2.40;;
27925;SDS011;15267;47.838;12.128;2022-10-16T02:51:54;5.38;;;2.63;;
27925;SDS011;15267;47.838;12.128;2022-10-16T02:54:20;5.28;;;2.30;;
27925;SDS011;15267;47.838;12.128;2022-10-16T02:56:46;5.35;;;2.80;;
27925;SDS011;15267;47.838;12.128;2022-10-16T02:59:12;4.10;;;2.58;;
27925;SDS011;15267;47.838;12.128;2022-10-16T03:01:38;3.55;;;2.50;;
27925;SDS011;15267;47.838;12.128;2022-10-16T03:04:04;4.55;;;2.30;;
27925;SDS011;15267;47.838;12.128;2022-10-16T03:06:30;7.13;;;2.33;;
27925;SDS011;15267;47.838;12.128;2022-10-16T03:08:56;5.72;;;2.38;;
27925;SDS011;15267;47.838;12.128;2022-10-16T03:11:22;6.97;;;2.20;;
27925;SDS011;15267;47.838;12.128;2022-10-16T03:13:48;7.28;;;2.40;;
27925;SDS011;15267;47.838;12.128;2022-10-16T03:16:14;9.85;;;2.40;;
27925;SDS011;15267;47.838;12.128;2022-10-16T03:18:40;7.82;;;2.50;;
27925;SDS011;15267;47.838;12.128;2022-10-16T03:21:06;5.68;;;2.05;;
27925;SDS011;15267;47.838;12.128;2022-10-16T03:23:32;8.27;;;2.00;;
27925;SDS011;15267;47.838;12.128;2022-10-16T03:25:58;3.53;;;1.80;;
27925;SDS011;15267;47.838;12.128;2022-10-16T03:28:24;4.22;;;2.00;;
27925;SDS011;15267;47.838;12.128;2022-10-16T03:30:50;4.95;;;1.98;;
27925;SDS011;15267;47.838;12.128;2022-10-16T03:33:16;3.78;;;1.75;;
27925;SDS011;15267;47.838;12.128;2022-10-16T03:35:42;3.92;;;1.88;;
27925;SDS011;15267;47.838;12.128;2022-10-16T03:38:07;2.85;;;1.67;;
27925;SDS011;15267;47.838;12.128;2022-10-16T03:40:33;5.18;;;2.00;;
27925;SDS011;15267;47.838;12.128;2022-10-16T03:42:59;4.93;;;1.80;;
27925;SDS011;15267;47.838;12.128;2022-10-16T03:45:26;4.47;;;1.90;;
27925;SDS011;15267;47.838;12.128;2022-10-16T03:47:52;4.95;;;2.17;;
27925;SDS011;15267;47.838;12.128;2022-10-16T03:50:18;6.57;;;1.80;;
27925;SDS011;15267;47.838;12.128;2022-10-16T03:52:44;6.10;;;2.22;;
27925;SDS011;15267;47.838;12.128;2022-10-16T03:55:10;6.60;;;2.13;;
27925;SDS011;15267;47.838;12.128;2022-10-16T03:57:36;5.72;;;1.98;;
27925;SDS011;15267;47.838;12.128;2022-10-16T04:00:02;2.92;;;2.00;;
27925;SDS011;15267;47.838;12.128;2022-10-16T04:02:28;4.10;;;1.98;;
27925;SDS011;15267;47.838;12.128;2022-10-16T04:04:54;4.65;;;2.05;;
27925;SDS011;15267;47.838;12.128;2022-10-16T04:07:20;3.95;;;2.30;;
27925;SDS011;15267;47.838;12.128;2022-10-16T04:09:46;3.10;;;2.03;;
27925;SDS011;15267;47.838;12.128;2022-10-16T04:12:12;4.85;;;2.30;;
27925;SDS011;15267;47.838;12.128;2022-10-16T04:14:38;2.53;;;1.80;;
27925;SDS011;15267;47.838;12.128;2022-10-16T04:17:04;3.40;;;1.80;;
27925;SDS011;15267;47.838;12.128;2022-10-16T04:19:30;6.75;;;2.22;;
27925;SDS011;15267;47.838;12.128;2022-10-16T04:21:56;4.95;;;1.67;;
27925;SDS011;15267;47.838;12.128;2022-10-16T04:24:22;3.00;;;1.88;;
27925;SDS011;15267;47.838;12.128;2022-10-16T04:26:48;4.88;;;2.13;;
27925;SDS011;15267;47.838;12.128;2022-10-16T04:29:14;6.75;;;2.03;;
27925;SDS011;15267;47.838;12.128;2022-10-16T04:31:40;4.20;;;2.00;;
27925;SDS011;15267;47.838;12.128;2022-10-16T04:34:06;9.82;;;2.30;;
27925;SDS011;15267;47.838;12.128;2022-10-16T04:36:32;5.57;;;2.50;;
27925;SDS011;15267;47.838;12.128;2022-10-16T04:38:58;3.92;;;1.83;;
27925;SDS011;15267;47.838;12.128;2022-10-16T04:41:24;5.53;;;2.33;;
27925;SDS011;15267;47.838;12.128;2022-10-16T04:43:50;7.20;;;2.28;;
27925;SDS011;15267;47.838;12.128;2022-10-16T04:46:16;6.47;;;2.10;;
27925;SDS011;15267;47.838;12.128;2022-10-16T04:48:42;5.32;;;2.03;;
27925;SDS011;15267;47.838;12.128;2022-10-16T04:51:08;4.90;;;2.22;;
27925;SDS011;15267;47.838;12.128;2022-10-16T04:53:34;5.10;;;2.22;;
27925;SDS011;15267;47.838;12.128;2022-10-16T04:56:00;5.75;;;2.50;;
27925;SDS011;15267;47.838;12.128;2022-10-16T04:58:26;4.70;;;2.38;;
27925;SDS011;15267;47.838;12.128;2022-10-16T05:00:51;4.85;;;2.42;;
27925;SDS011;15267;47.838;12.128;2022-10-16T05:03:17;4.75;;;2.40;;
27925;SDS011;15267;47.838;12.128;2022-10-16T05:05:44;4.80;;;2.15;;
27925;SDS011;15267;47.838;12.128;2022-10-16T05:08:11;7.10;;;2.45;;
27925;SDS011;15267;47.838;12.128;2022-10-16T05:10:37;4.32;;;2.00;;
27925;SDS011;15267;47.838;12.128;2022-10-16T05:13:03;5.97;;;2.50;;
27925;SDS011;15267;47.838;12.128;2022-10-16T05:15:29;6.75;;;2.33;;
27925;SDS011;15267;47.838;12.128;2022-10-16T05:17:55;6.30;;;2.47;;
27925;SDS011;15267;47.838;12.128;2022-10-16T05:20:22;8.38;;;2.10;;
27925;SDS011;15267;47.838;12.128;2022-10-16T05:22:48;2.85;;;1.90;;
27925;SDS011;15267;47.838;12.128;2022-10-16T05:25:14;3.35;;;2.17;;
27925;SDS011;15267;47.838;12.128;2022-10-16T05:27:40;4.30;;;2.20;;
27925;SDS011;15267;47.838;12.128;2022-10-16T05:30:06;6.20;;;2.00;;
27925;SDS011;15267;47.838;12.128;2022-10-16T05:32:32;3.88;;;2.03;;
27925;SDS011;15267;47.838;12.128;2022-10-16T05:34:58;3.22;;;2.20;;
27925;SDS011;15267;47.838;12.128;2022-10-16T05:37:25;5.10;;;2.08;;
27925;SDS011;15267;47.838;12.128;2022-10-16T05:39:51;7.95;;;2.35;;
27925;SDS011;15267;47.838;12.128;2022-10-16T05:42:17;7.43;;;2.20;;
27925;SDS011;15267;47.838;12.128;2022-10-16T05:44:43;4.15;;;2.20;;
27925;SDS011;15267;47.838;12.128;2022-10-16T05:47:09;2.78;;;1.98;;
27925;SDS011;15267;47.838;12.128;2022-10-16T05:49:35;2.20;;;2.00;;
27925;SDS011;15267;47.838;12.128;2022-10-16T05:52:01;4.60;;;2.05;;
27925;SDS011;15267;47.838;12.128;2022-10-16T05:54:27;5.72;;;2.47;;
27925;SDS011;15267;47.838;12.128;2022-10-16T05:56:53;3.85;;;2.40;;
27925;SDS011;15267;47.838;12.128;2022-10-16T05:59:19;4.72;;;2.40;;
27925;SDS011;15267;47.838;12.128;2022-10-16T06:01:45;5.72;;;2.80;;
27925;SDS011;15267;47.838;12.128;2022-10-16T06:04:11;4.82;;;3.38;;
27925;SDS011;15267;47.838;12.128;2022-10-16T06:06:37;7.45;;;5.03;;
27925;SDS011;15267;47.838;12.128;2022-10-16T06:09:03;7.97;;;3.13;;
27925;SDS011;15267;47.838;12.128;2022-10-16T06:11:30;7.18;;;2.95;;
27925;SDS011;15267;47.838;12.128;2022-10-16T06:13:57;5.72;;;2.42;;
27925;SDS011;15267;47.838;12.128;2022-10-16T06:16:25;7.00;;;2.92;;
27925;SDS011;15267;47.838;12.128;2022-10-16T06:18:51;5.90;;;5.13;;
27925;SDS011;15267;47.838;12.128;2022-10-16T06:21:18;8.05;;;5.65;;
27925;SDS011;15267;47.838;12.128;2022-10-16T06:23:45;4.07;;;3.03;;
27925;SDS011;15267;47.838;12.128;2022-10-16T06:26:12;7.43;;;3.63;;
27925;SDS011;15267;47.838;12.128;2022-10-16T06:28:38;8.40;;;3.13;;
27925;SDS011;15267;47.838;12.128;2022-10-16T06:31:05;7.00;;;3.22;;
27925;SDS011;15267;47.838;12.128;2022-10-16T06:33:31;8.65;;;3.30;;
27925;SDS011;15267;47.838;12.128;2022-10-16T06:36:30;9.05;;;5.35;;
27925;SDS011;15267;47.838;12.128;2022-10-16T06:38:49;7.93;;;5.35;;
27925;SDS011;15267;47.838;12.128;2022-10-16T06:41:17;6.07;;;4.22;;
27925;SDS011;15267;47.838;12.128;2022-10-16T06:43:43;6.20;;;4.00;;
27925;SDS011;15267;47.838;12.128;2022-10-16T06:46:10;6.10;;;3.50;;
27925;SDS011;15267;47.838;12.128;2022-10-16T06:48:37;6.10;;;3.58;;
27925;SDS011;15267;47.838;12.128;2022-10-16T06:51:06;6.80;;;3.90;;
27925;SDS011;15267;47.838;12.128;2022-10-16T06:53:35;4.15;;;3.58;;
27925;SDS011;15267;47.838;12.128;2022-10-16T06:58:33;6.93;;;3.65;;
27925;SDS011;15267;47.838;12.128;2022-10-16T07:00:59;5.07;;;3.28;;
27925;SDS011;15267;47.838;12.128;2022-10-16T07:03:25;5.25;;;3.10;;
27925;SDS011;15267;47.838;12.128;2022-10-16T07:05:51;3.92;;;3.40;;
27925;SDS011;15267;47.838;12.128;2022-10-16T07:08:17;4.70;;;3.28;;
27925;SDS011;15267;47.838;12.128;2022-10-16T07:10:43;5.20;;;3.90;;
27925;SDS011;15267;47.838;12.128;2022-10-16T07:13:09;5.50;;;3.45;;
27925;SDS011;15267;47.838;12.128;2022-10-16T07:15:38;5.57;;;3.53;;
27925;SDS011;15267;47.838;12.128;2022-10-16T07:18:04;9.60;;;5.43;;
27925;SDS011;15267;47.838;12.128;2022-10-16T07:20:30;12.32;;;7.15;;
27925;SDS011;15267;47.838;12.128;2022-10-16T07:22:56;18.77;;;10.48;;
27925;SDS011;15267;47.838;12.128;2022-10-16T07:25:22;7.60;;;4.78;;
27925;SDS011;15267;47.838;12.128;2022-10-16T07:27:48;12.93;;;8.70;;
27925;SDS011;15267;47.838;12.128;2022-10-16T07:30:14;9.38;;;6.50;;
27925;SDS011;15267;47.838;12.128;2022-10-16T07:32:40;6.72;;;4.70;;
27925;SDS011;15267;47.838;12.128;2022-10-16T07:35:06;8.60;;;4.55;;
27925;SDS011;15267;47.838;12.128;2022-10-16T07:37:32;6.05;;;4.05;;
27925;SDS011;15267;47.838;12.128;2022-10-16T07:39:58;7.13;;;3.85;;
27925;SDS011;15267;47.838;12.128;2022-10-16T07:42:24;6.32;;;4.47;;
27925;SDS011;15267;47.838;12.128;2022-10-16T07:44:50;8.38;;;4.70;;
27925;SDS011;15267;47.838;12.128;2022-10-16T07:47:16;7.07;;;4.40;;
27925;SDS011;15267;47.838;12.128;2022-10-16T07:49:41;7.40;;;4.32;;
27925;SDS011;15267;47.838;12.128;2022-10-16T07:52:07;5.50;;;3.95;;
27925;SDS011;15267;47.838;12.128;2022-10-16T07:54:33;4.43;;;3.45;;
27925;SDS011;15267;47.838;12.128;2022-10-16T07:56:59;8.43;;;3.45;;
27925;SDS011;15267;47.838;12.128;2022-10-16T07:59:25;6.90;;;3.25;;
27925;SDS011;15267;47.838;12.128;2022-10-16T08:01:51;4.85;;;2.78;;
27925;SDS011;15267;47.838;12.128;2022-10-16T08:04:17;4.15;;;2.78;;
27925;SDS011;15267;47.838;12.128;2022-10-16T08:06:43;6.03;;;3.08;;
27925;SDS011;15267;47.838;12.128;2022-10-16T08:09:09;4.00;;;2.78;;
27925;SDS011;15267;47.838;12.128;2022-10-16T08:11:35;4.57;;;2.85;;
27925;SDS011;15267;47.838;12.128;2022-10-16T08:14:01;6.68;;;2.80;;
27925;SDS011;15267;47.838;12.128;2022-10-16T08:16:27;6.78;;;3.13;;
27925;SDS011;15267;47.838;12.128;2022-10-16T08:18:53;4.05;;;2.80;;
27925;SDS011;15267;47.838;12.128;2022-10-16T08:21:20;11.57;;;3.08;;
27925;SDS011;15267;47.838;12.128;2022-10-16T08:23:47;6.18;;;2.83;;
27925;SDS011;15267;47.838;12.128;2022-10-16T08:26:13;7.55;;;2.78;;
27925;SDS011;15267;47.838;12.128;2022-10-16T08:28:39;4.07;;;2.75;;
27925;SDS011;15267;47.838;12.128;2022-10-16T08:31:10;4.50;;;2.78;;
27925;SDS011;15267;47.838;12.128;2022-10-16T08:33:36;2.88;;;2.58;;
27925;SDS011;15267;47.838;12.128;2022-10-16T08:36:03;3.05;;;2.20;;
27925;SDS011;15267;47.838;12.128;2022-10-16T08:38:29;4.75;;;2.10;;
27925;SDS011;15267;47.838;12.128;2022-10-16T08:41:43;3.85;;;2.10;;
27925;SDS011;15267;47.838;12.128;2022-10-16T08:48:58;4.65;;;2.00;;
27925;SDS011;15267;47.838;12.128;2022-10-16T08:51:26;2.33;;;2.10;;
27925;SDS011;15267;47.838;12.128;2022-10-16T08:56:18;3.60;;;2.35;;
27925;SDS011;15267;47.838;12.128;2022-10-16T08:58:45;4.65;;;2.30;;
27925;SDS011;15267;47.838;12.128;2022-10-16T09:01:13;2.70;;;2.20;;
27925;SDS011;15267;47.838;12.128;2022-10-16T09:14:29;2.60;;;2.40;;
27925;SDS011;15267;47.838;12.128;2022-10-16T09:19:56;4.30;;;2.50;;
27925;SDS011;15267;47.838;12.128;2022-10-16T09:22:25;2.80;;;2.50;;
27925;SDS011;15267;47.838;12.128;2022-10-16T09:24:53;3.05;;;2.10;;
27925;SDS011;15267;47.838;12.128;2022-10-16T09:27:20;3.72;;;2.40;;
27925;SDS011;15267;47.838;12.128;2022-10-16T09:29:46;2.78;;;2.20;;
27925;SDS011;15267;47.838;12.128;2022-10-16T09:32:13;2.67;;;2.17;;
27925;SDS011;15267;47.838;12.128;2022-10-16T09:34:42;2.78;;;2.25;;
27925;SDS011;15267;47.838;12.128;2022-10-16T09:37:09;2.45;;;2.25;;
27925;SDS011;15267;47.838;12.128;2022-10-16T09:39:49;4.38;;;2.30;;
27925;SDS011;15267;47.838;12.128;2022-10-16T09:42:22;2.58;;;2.33;;
27925;SDS011;15267;47.838;12.128;2022-10-16T09:44:50;4.40;;;2.58;;
27925;SDS011;15267;47.838;12.128;2022-10-16T09:47:19;2.83;;;2.40;;
27925;SDS011;15267;47.838;12.128;2022-10-16T09:52:19;4.25;;;2.45;;
27925;SDS011;15267;47.838;12.128;2022-10-16T09:54:48;3.42;;;2.20;;
27925;SDS011;15267;47.838;12.128;2022-10-16T09:57:14;3.80;;;2.28;;
27925;SDS011;15267;47.838;12.128;2022-10-16T09:59:51;3.47;;;2.25;;
27925;SDS011;15267;47.838;12.128;2022-10-16T10:02:18;3.13;;;2.40;;
27925;SDS011;15267;47.838;12.128;2022-10-16T10:04:49;4.60;;;2.60;;
27925;SDS011;15267;47.838;12.128;2022-10-16T10:07:26;3.55;;;2.35;;
27925;SDS011;15267;47.838;12.128;2022-10-16T10:09:53;5.82;;;2.42;;
27925;SDS011;15267;47.838;12.128;2022-10-16T10:12:20;3.28;;;2.50;;
27925;SDS011;15267;47.838;12.128;2022-10-16T10:14:47;6.05;;;2.45;;
27925;SDS011;15267;47.838;12.128;2022-10-16T10:17:21;2.88;;;2.30;;
27925;SDS011;15267;47.838;12.128;2022-10-16T10:27:21;2.85;;;2.58;;
27925;SDS011;15267;47.838;12.128;2022-10-16T10:29:54;2.38;;;2.17;;
27925;SDS011;15267;47.838;12.128;2022-10-16T10:38:24;5.00;;;2.80;;
27925;SDS011;15267;47.838;12.128;2022-10-16T10:43:06;5.35;;;2.40;;
27925;SDS011;15267;47.838;12.128;2022-10-16T10:45:41;3.20;;;2.40;;
27925;SDS011;15267;47.838;12.128;2022-10-16T10:50:50;3.10;;;2.50;;
27925;SDS011;15267;47.838;12.128;2022-10-16T10:53:21;2.83;;;2.35;;
27925;SDS011;15267;47.838;12.128;2022-10-16T10:58:43;3.83;;;2.20;;
27925;SDS011;15267;47.838;12.128;2022-10-16T11:06:08;3.42;;;2.40;;
27925;SDS011;15267;47.838;12.128;2022-10-16T11:14:03;3.75;;;2.20;;
27925;SDS011;15267;47.838;12.128;2022-10-16T11:16:45;4.90;;;2.40;;
27925;SDS011;15267;47.838;12.128;2022-10-16T11:22:09;2.90;;;2.38;;
27925;SDS011;15267;47.838;12.128;2022-10-16T11:27:17;4.03;;;2.55;;
27925;SDS011;15267;47.838;12.128;2022-10-16T11:30:04;4.72;;;2.42;;
27925;SDS011;15267;47.838;12.128;2022-10-16T11:32:36;3.17;;;2.33;;
27925;SDS011;15267;47.838;12.128;2022-10-16T11:35:15;2.47;;;2.28;;
27925;SDS011;15267;47.838;12.128;2022-10-16T11:37:44;4.05;;;2.40;;
27925;SDS011;15267;47.838;12.128;2022-10-16T11:42:51;5.10;;;2.42;;
27925;SDS011;15267;47.838;12.128;2022-10-16T11:45:32;3.20;;;2.37;;
27925;SDS011;15267;47.838;12.128;2022-10-16T11:48:00;3.65;;;2.20;;
27925;SDS011;15267;47.838;12.128;2022-10-16T11:50:41;2.90;;;2.03;;
27925;SDS011;15267;47.838;12.128;2022-10-16T11:55:47;3.10;;;2.20;;
27925;SDS011;15267;47.838;12.128;2022-10-16T11:58:36;2.45;;;2.15;;
27925;SDS011;15267;47.838;12.128;2022-10-16T12:03:54;3.65;;;2.00;;
27925;SDS011;15267;47.838;12.128;2022-10-16T12:06:25;4.30;;;2.40;;
27925;SDS011;15267;47.838;12.128;2022-10-16T12:08:53;2.78;;;2.05;;
27925;SDS011;15267;47.838;12.128;2022-10-16T12:16:50;2.65;;;2.42;;
27925;SDS011;15267;47.838;12.128;2022-10-16T12:19:17;5.18;;;2.20;;
27925;SDS011;15267;47.838;12.128;2022-10-16T12:21:43;3.20;;;2.20;;
27925;SDS011;15267;47.838;12.128;2022-10-16T12:26:54;3.70;;;2.38;;
27925;SDS011;15267;47.838;12.128;2022-10-16T12:29:31;2.85;;;1.98;;
27925;SDS011;15267;47.838;12.128;2022-10-16T12:31:58;2.85;;;2.00;;
27925;SDS011;15267;47.838;12.128;2022-10-16T12:37:20;2.35;;;1.95;;
27925;SDS011;15267;47.838;12.128;2022-10-16T12:39:47;3.97;;;2.10;;
27925;SDS011;15267;47.838;12.128;2022-10-16T12:42:22;2.65;;;1.75;;
27925;SDS011;15267;47.838;12.128;2022-10-16T12:44:49;1.80;;;1.70;;
27925;SDS011;15267;47.838;12.128;2022-10-16T12:49:51;5.25;;;1.98;;
27925;SDS011;15267;47.838;12.128;2022-10-16T12:54:59;2.47;;;1.88;;
27925;SDS011;15267;47.838;12.128;2022-10-16T12:58:09;5.10;;;1.60;;
27925;SDS011;15267;47.838;12.128;2022-10-16T13:00:24;1.80;;;1.70;;
27925;SDS011;15267;47.838;12.128;2022-10-16T13:10:35;1.80;;;1.70;;
27925;SDS011;15267;47.838;12.128;2022-10-16T13:18:14;1.83;;;1.60;;
27925;SDS011;15267;47.838;12.128;2022-10-16T13:20:56;2.55;;;1.65;;
27925;SDS011;15267;47.838;12.128;2022-10-16T13:28:42;3.03;;;1.65;;
27925;SDS011;15267;47.838;12.128;2022-10-16T13:31:14;2.58;;;1.48;;
27925;SDS011;15267;47.838;12.128;2022-10-16T13:33:41;2.83;;;1.50;;
27925;SDS011;15267;47.838;12.128;2022-10-16T13:36:18;2.42;;;1.35;;
27925;SDS011;15267;47.838;12.128;2022-10-16T13:38:45;3.70;;;1.67;;
27925;SDS011;15267;47.838;12.128;2022-10-16T13:41:15;2.67;;;1.45;;
27925;SDS011;15267;47.838;12.128;2022-10-16T13:43:43;2.85;;;1.40;;
27925;SDS011;15267;47.838;12.128;2022-10-16T13:46:17;4.72;;;1.40;;
27925;SDS011;15267;47.838;12.128;2022-10-16T13:48:44;1.75;;;1.17;;
27925;SDS011;15267;47.838;12.128;2022-10-16T13:51:14;2.55;;;1.63;;
27925;SDS011;15267;47.838;12.128;2022-10-16T13:53:40;3.63;;;1.45;;
27925;SDS011;15267;47.838;12.128;2022-10-16T13:56:09;2.20;;;1.45;;
27925;SDS011;15267;47.838;12.128;2022-10-16T13:58:35;3.58;;;1.48;;
27925;SDS011;15267;47.838;12.128;2022-10-16T14:01:02;1.98;;;1.40;;
27925;SDS011;15267;47.838;12.128;2022-10-16T14:03:30;1.45;;;1.20;;
27925;SDS011;15267;47.838;12.128;2022-10-16T14:06:03;2.22;;;1.10;;
27925;SDS011;15267;47.838;12.128;2022-10-16T14:08:31;1.55;;;0.90;;
27925;SDS011;15267;47.838;12.128;2022-10-16T14:10:58;1.95;;;0.68;;
27925;SDS011;15267;47.838;12.128;2022-10-16T14:13:28;0.82;;;0.60;;
27925;SDS011;15267;47.838;12.128;2022-10-16T14:15:54;1.15;;;0.50;;
27925;SDS011;15267;47.838;12.128;2022-10-16T14:18:24;3.22;;;0.70;;
27925;SDS011;15267;47.838;12.128;2022-10-16T14:20:50;0.52;;;0.50;;
27925;SDS011;15267;47.838;12.128;2022-10-16T14:23:21;2.47;;;0.80;;
27925;SDS011;15267;47.838;12.128;2022-10-16T14:25:47;5.70;;;0.73;;
27925;SDS011;15267;47.838;12.128;2022-10-16T14:28:20;1.02;;;0.60;;
27925;SDS011;15267;47.838;12.128;2022-10-16T14:36:05;3.70;;;0.60;;
27925;SDS011;15267;47.838;12.128;2022-10-16T14:38:31;2.03;;;0.50;;
27925;SDS011;15267;47.838;12.128;2022-10-16T14:40:58;1.35;;;0.70;;
27925;SDS011;15267;47.838;12.128;2022-10-16T14:43:31;0.85;;;0.60;;
27925;SDS011;15267;47.838;12.128;2022-10-16T14:48:24;0.88;;;0.60;;
27925;SDS011;15267;47.838;12.128;2022-10-16T14:50:50;2.22;;;0.60;;
27925;SDS011;15267;47.838;12.128;2022-10-16T14:53:16;0.82;;;0.50;;
27925;SDS011;15267;47.838;12.128;2022-10-16T14:55:42;2.15;;;0.40;;
27925;SDS011;15267;47.838;12.128;2022-10-16T14:58:15;1.73;;;0.50;;
27925;SDS011;15267;47.838;12.128;2022-10-16T15:00:42;1.25;;;0.60;;
27925;SDS011;15267;47.838;12.128;2022-10-16T15:03:08;0.60;;;0.55;;
27925;SDS011;15267;47.838;12.128;2022-10-16T15:05:34;3.20;;;0.50;;
27925;SDS011;15267;47.838;12.128;2022-10-16T15:08:00;0.50;;;0.50;;
27925;SDS011;15267;47.838;12.128;2022-10-16T15:10:27;1.77;;;0.60;;
27925;SDS011;15267;47.838;12.128;2022-10-16T15:12:53;0.47;;;0.40;;
27925;SDS011;15267;47.838;12.128;2022-10-16T15:17:48;0.50;;;0.50;;
27925;SDS011;15267;47.838;12.128;2022-10-16T15:20:17;1.15;;;0.60;;
27925;SDS011;15267;47.838;12.128;2022-10-16T15:22:43;1.08;;;0.60;;
27925;SDS011;15267;47.838;12.128;2022-10-16T15:25:29;0.95;;;0.50;;
27925;SDS011;15267;47.838;12.128;2022-10-16T15:27:56;0.60;;;0.60;;
27925;SDS011;15267;47.838;12.128;2022-10-16T15:30:22;0.88;;;0.60;;
27925;SDS011;15267;47.838;12.128;2022-10-16T15:32:48;2.53;;;0.65;;
27925;SDS011;15267;47.838;12.128;2022-10-16T15:35:14;2.75;;;0.77;;
27925;SDS011;15267;47.838;12.128;2022-10-16T15:37:40;2.00;;;0.73;;
27925;SDS011;15267;47.838;12.128;2022-10-16T15:40:06;1.77;;;0.70;;
27925;SDS011;15267;47.838;12.128;2022-10-16T15:42:32;2.40;;;0.70;;
27925;SDS011;15267;47.838;12.128;2022-10-16T15:44:58;1.20;;;0.70;;
27925;SDS011;15267;47.838;12.128;2022-10-16T15:47:24;0.80;;;0.70;;
27925;SDS011;15267;47.838;12.128;2022-10-16T15:49:50;1.65;;;0.70;;
27925;SDS011;15267;47.838;12.128;2022-10-16T15:52:16;2.80;;;0.93;;
27925;SDS011;15267;47.838;12.128;2022-10-16T15:54:42;1.77;;;0.93;;
27925;SDS011;15267;47.838;12.128;2022-10-16T15:57:09;1.40;;;0.90;;
27925;SDS011;15267;47.838;12.128;2022-10-16T15:59:35;2.22;;;1.35;;
27925;SDS011;15267;47.838;12.128;2022-10-16T16:02:01;3.67;;;1.60;;
27925;SDS011;15267;47.838;12.128;2022-10-16T16:04:29;6.53;;;1.60;;
27925;SDS011;15267;47.838;12.128;2022-10-16T16:06:55;11.30;;;2.10;;
27925;SDS011;15267;47.838;12.128;2022-10-16T16:09:21;2.72;;;2.17;;
27925;SDS011;15267;47.838;12.128;2022-10-16T16:11:47;5.38;;;2.47;;
27925;SDS011;15267;47.838;12.128;2022-10-16T16:14:14;5.55;;;2.28;;
27925;SDS011;15267;47.838;12.128;2022-10-16T16:16:40;5.10;;;2.00;;
27925;SDS011;15267;47.838;12.128;2022-10-16T16:19:07;7.28;;;1.88;;
27925;SDS011;15267;47.838;12.128;2022-10-16T16:21:33;6.63;;;2.22;;
27925;SDS011;15267;47.838;12.128;2022-10-16T16:23:59;3.83;;;1.83;;
27925;SDS011;15267;47.838;12.128;2022-10-16T16:26:26;7.60;;;2.20;;
27925;SDS011;15267;47.838;12.128;2022-10-16T16:28:54;6.25;;;1.80;;
27925;SDS011;15267;47.838;12.128;2022-10-16T16:31:23;8.52;;;2.22;;
27925;SDS011;15267;47.838;12.128;2022-10-16T16:33:50;9.95;;;4.63;;
27925;SDS011;15267;47.838;12.128;2022-10-16T16:36:16;11.43;;;6.50;;
27925;SDS011;15267;47.838;12.128;2022-10-16T16:38:43;14.30;;;8.15;;
27925;SDS011;15267;47.838;12.128;2022-10-16T16:41:16;14.10;;;6.75;;
27925;SDS011;15267;47.838;12.128;2022-10-16T16:43:42;11.10;;;5.57;;
27925;SDS011;15267;47.838;12.128;2022-10-16T16:46:09;13.95;;;9.75;;
27925;SDS011;15267;47.838;12.128;2022-10-16T16:48:35;17.45;;;10.77;;